Ana Sayfa
METAR-TAF:

METAR-TAF

Havaalanları :

Los Mochis, Meksika

Enlem: 25-41N, Boylam: 109-05W, yükseklik: 4 m

Güncel hava durumu gözlemi

Rapor saat 03:40 UTC de 9 saat ve 8 dakika önce yapıldı.
Rüzgar batıdan 3 kt
Sıcaklık 20°C
Nem 83%
Basınç 1017 hPa
Görüş mesafesi: 16.1 km
Açık gökyüzü

METAR: MMLM 080340Z 28003KT 10SM SKC 20/17 A3004

Saat: 05:48 (12:48 UTC)

Tahmin

Rapor saat 04:49 UTC de 7 saat ve 59 dakika önce yapıldı.
Ayın 08'si saat 06 UTC'den ayın 09'si saat 06 UTC'ye kadar geçerli Tahmin
Rüzgar batıdan 4 kt
Görüş mesafesi: 10 km
Açık gökyüzü
Ayın 08'si saat 1800 UTC'den
Rüzgar batı/güneybatıdan 8 kt
Görüş mesafesi: 10 km
Açık gökyüzü
Dönüşüyor
ayın 09'si saat 03 UTC'den ayın 09'si saat 05 UTC'ye kadar
Rüzgar kuzey/kuzeybatıdan 4 kt

TAF: MMLM 080449Z 0806/0906 28004KT P6SM SKC FM081800 24008KT P6SM SKC BECMG 0903/0905 33004KT

4.000'den fazla havaalanı için hava durumu gözlemleri ve tahminleri (METAR ve TAF raporları).

Kullanılabilir istasyonlar harita üzerinde sarı ve kırmızı noktalarla gösterilir.

İstasyonun adını görmek için fareyi noktanın üzerinde gezdirin.

Sonrasında hava gözlem ve tahminlerini görmek için tıklayın.

Haritayı değiştirmek için: yaklaştırmak için siyah artı işaretli yeşil düğmeye ve uzaklaştırmak için de eksi işaretli düğmeye hızla tıklayın; bitişik haritalar için yeşil okları kullanın.


METAR-TAF: